createdAt,value
2019-06-20T00:00:36.972Z,7.93
2019-06-20T00:03:05.542Z,7.90
2019-06-20T00:05:33.923Z,7.77
2019-06-20T00:08:02.690Z,7.47
2019-06-20T00:10:30.891Z,7.80
2019-06-20T00:13:00.986Z,7.10
2019-06-20T00:15:29.458Z,7.28
2019-06-20T00:17:57.688Z,6.37
2019-06-20T00:20:26.065Z,6.40
2019-06-20T00:22:54.613Z,6.53
2019-06-20T00:25:22.779Z,8.13
2019-06-20T00:27:51.020Z,8.20
2019-06-20T00:30:19.396Z,7.17
2019-06-20T00:32:47.649Z,7.30
2019-06-20T00:35:16.119Z,7.00
2019-06-20T00:37:44.738Z,7.40
2019-06-20T00:40:13.082Z,7.07
2019-06-20T00:42:41.308Z,7.20
2019-06-20T00:45:09.780Z,6.93
2019-06-20T00:47:38.231Z,7.03
2019-06-20T00:50:06.657Z,7.30
2019-06-20T00:52:34.963Z,7.53
2019-06-20T00:55:04.936Z,8.03
2019-06-20T00:57:35.142Z,8.10
2019-06-20T01:00:07.153Z,8.30
2019-06-20T01:02:35.425Z,8.17
2019-06-20T01:05:04.786Z,8.03
2019-06-20T01:07:33.430Z,8.07
2019-06-20T01:10:02.026Z,8.10
2019-06-20T01:12:30.661Z,8.80
2019-06-20T01:14:59.056Z,8.70
2019-06-20T01:17:27.310Z,8.47
2019-06-20T01:19:58.206Z,8.63
2019-06-20T01:22:25.602Z,8.03
2019-06-20T01:24:54.210Z,8.60
2019-06-20T01:27:22.651Z,7.70
2019-06-20T01:29:51.356Z,8.47
2019-06-20T01:32:19.488Z,7.83
2019-06-20T01:34:47.989Z,8.63
2019-06-20T01:37:16.770Z,8.80
2019-06-20T01:39:45.383Z,9.45
2019-06-20T01:42:13.903Z,9.03
2019-06-20T01:44:42.149Z,9.53
2019-06-20T01:47:10.872Z,9.37
2019-06-20T01:49:39.327Z,9.50
2019-06-20T01:52:07.905Z,9.27
2019-06-20T01:54:36.457Z,9.67
2019-06-20T01:57:04.859Z,9.47
2019-06-20T01:59:34.420Z,8.90
2019-06-20T02:02:02.792Z,9.13
2019-06-20T02:04:31.735Z,9.27
2019-06-20T02:07:00.355Z,8.57
2019-06-20T02:09:28.674Z,8.77
2019-06-20T02:11:57.132Z,8.63
2019-06-20T02:14:25.890Z,8.97
2019-06-20T02:16:54.409Z,8.90
2019-06-20T02:19:22.839Z,8.73
2019-06-20T02:21:51.251Z,9.07
2019-06-20T02:24:19.709Z,8.53
2019-06-20T02:26:47.933Z,9.20
2019-06-20T02:29:16.359Z,10.20
2019-06-20T02:31:44.941Z,8.23
2019-06-20T02:34:13.649Z,8.20
2019-06-20T02:36:42.288Z,8.10
2019-06-20T02:39:10.829Z,8.67
2019-06-20T02:41:39.374Z,8.20
2019-06-20T02:44:24.777Z,9.30
2019-06-20T02:46:38.017Z,8.00
2019-06-20T02:49:06.447Z,8.30
2019-06-20T02:51:35.344Z,8.07
2019-06-20T02:54:04.480Z,9.40
2019-06-20T02:56:32.917Z,8.73
2019-06-20T02:59:01.964Z,8.40
2019-06-20T03:01:31.251Z,8.83
2019-06-20T03:03:59.991Z,8.10
2019-06-20T03:06:28.366Z,8.93
2019-06-20T03:08:56.988Z,8.83
2019-06-20T03:11:25.341Z,9.20
2019-06-20T03:13:53.743Z,9.07
2019-06-20T03:16:21.985Z,8.50
2019-06-20T03:18:50.420Z,9.07
2019-06-20T03:21:19.091Z,9.23
2019-06-20T03:23:47.569Z,8.37
2019-06-20T03:26:16.373Z,8.90
2019-06-20T03:28:44.934Z,10.27
2019-06-20T03:31:13.536Z,9.10
2019-06-20T03:33:41.923Z,9.80
2019-06-20T03:36:10.431Z,9.53
2019-06-20T03:38:38.841Z,9.50
2019-06-20T03:41:07.043Z,9.00
2019-06-20T03:43:35.628Z,8.77
2019-06-20T03:46:04.370Z,8.50
2019-06-20T03:48:32.559Z,8.70
2019-06-20T03:51:01.202Z,8.17
2019-06-20T03:53:29.424Z,8.27
2019-06-20T03:55:57.687Z,8.07
2019-06-20T03:58:26.487Z,8.80
2019-06-20T04:00:55.301Z,10.23
2019-06-20T04:03:24.732Z,9.33
2019-06-20T04:05:53.208Z,9.50
2019-06-20T04:08:21.435Z,9.23
2019-06-20T04:10:50.165Z,9.03
2019-06-20T04:13:18.806Z,8.93
2019-06-20T04:15:47.267Z,7.50
2019-06-20T04:18:15.689Z,8.37
2019-06-20T04:20:44.244Z,7.97
2019-06-20T04:23:13.027Z,8.13
2019-06-20T04:25:41.451Z,7.87
2019-06-20T04:28:09.852Z,7.60
2019-06-20T04:30:38.337Z,6.77
2019-06-20T04:33:07.106Z,7.27
2019-06-20T04:35:35.350Z,7.77
2019-06-20T04:38:03.608Z,7.40
2019-06-20T04:40:32.064Z,7.27
2019-06-20T04:43:00.620Z,6.87
2019-06-20T04:45:35.054Z,6.80
2019-06-20T04:48:00.809Z,7.37
2019-06-20T04:50:29.088Z,7.37
2019-06-20T04:52:57.416Z,6.60
2019-06-20T04:55:25.847Z,6.93
2019-06-20T04:57:54.060Z,7.87
2019-06-20T05:00:22.294Z,7.58
2019-06-20T05:02:50.679Z,8.17
2019-06-20T05:05:19.778Z,7.87
2019-06-20T05:07:48.640Z,8.28
2019-06-20T05:10:16.907Z,8.73
2019-06-20T05:12:45.623Z,8.83
2019-06-20T05:15:14.387Z,10.08
2019-06-20T05:17:43.207Z,10.63
2019-06-20T05:20:11.863Z,11.78
2019-06-20T05:22:40.202Z,10.63
2019-06-20T05:25:08.724Z,11.05
2019-06-20T05:27:37.519Z,11.10
2019-06-20T05:30:09.771Z,11.75
2019-06-20T05:32:38.120Z,10.53
2019-06-20T05:35:07.066Z,10.70
2019-06-20T05:37:35.921Z,11.43
2019-06-20T05:40:07.503Z,20.52
2019-06-20T05:42:36.055Z,16.50
2019-06-20T05:45:06.622Z,17.98
2019-06-20T05:47:35.248Z,18.30
2019-06-20T05:50:05.935Z,13.60
2019-06-20T05:52:35.064Z,14.47
2019-06-20T05:55:05.082Z,13.40
2019-06-20T05:57:33.614Z,12.05
2019-06-20T06:00:01.966Z,9.80
2019-06-20T06:02:30.589Z,10.00
2019-06-20T06:04:59.544Z,19.03
2019-06-20T06:07:29.390Z,14.45
2019-06-20T06:09:57.678Z,9.73
2019-06-20T06:12:27.422Z,10.18
2019-06-20T06:14:56.470Z,11.57
2019-06-20T06:17:25.012Z,13.55
2019-06-20T06:19:53.580Z,10.10
2019-06-20T06:22:21.824Z,7.95
2019-06-20T06:24:50.709Z,10.78
2019-06-20T06:27:19.682Z,11.20
2019-06-20T06:29:48.656Z,9.70
2019-06-20T06:32:20.060Z,7.65
2019-06-20T06:34:47.845Z,9.80
2019-06-20T06:37:16.473Z,9.00
2019-06-20T06:39:45.367Z,8.35
2019-06-20T06:42:13.546Z,8.98
2019-06-20T06:44:42.434Z,8.33
2019-06-20T06:47:11.092Z,9.18
2019-06-20T06:49:39.752Z,8.68
2019-06-20T06:52:08.075Z,7.83
2019-06-20T06:54:36.821Z,7.58
2019-06-20T06:57:05.529Z,7.95
2019-06-20T06:59:34.022Z,8.30
2019-06-20T07:02:02.298Z,8.18
2019-06-20T07:04:30.811Z,7.30
2019-06-20T07:06:59.672Z,7.53
2019-06-20T07:09:29.578Z,9.53
2019-06-20T07:11:57.941Z,7.22
2019-06-20T07:14:26.149Z,7.75
2019-06-20T07:17:00.401Z,8.10
2019-06-20T07:19:25.711Z,7.85
2019-06-20T07:21:54.146Z,8.03
2019-06-20T07:24:22.610Z,7.30
2019-06-20T07:26:51.318Z,6.67
2019-06-20T07:29:19.688Z,6.03
2019-06-20T07:31:47.947Z,5.70
2019-06-20T07:34:16.819Z,5.05
2019-06-20T07:36:45.059Z,5.03
2019-06-20T07:39:13.456Z,5.08
2019-06-20T07:41:42.262Z,5.00
2019-06-20T07:44:10.967Z,4.58
2019-06-20T07:46:39.738Z,4.78
2019-06-20T07:49:08.089Z,4.92
2019-06-20T07:51:38.708Z,4.87
2019-06-20T07:54:06.725Z,5.30
2019-06-20T07:56:35.099Z,5.10
2019-06-20T07:59:05.144Z,5.62
2019-06-20T08:01:33.833Z,5.78
2019-06-20T08:04:02.078Z,6.17
2019-06-20T08:06:30.812Z,6.53
2019-06-20T08:08:59.224Z,6.30
2019-06-20T08:11:28.736Z,5.78
2019-06-20T08:13:57.272Z,5.45
2019-06-20T08:16:26.084Z,5.67
2019-06-20T08:18:54.440Z,5.47
2019-06-20T08:21:22.983Z,5.08
2019-06-20T08:23:51.611Z,5.45
2019-06-20T08:26:19.866Z,5.28
2019-06-20T08:28:49.788Z,5.33
2019-06-20T08:31:18.349Z,5.87
2019-06-20T08:33:46.641Z,6.62
2019-06-20T08:36:15.489Z,7.00
2019-06-20T08:38:43.991Z,5.92
2019-06-20T08:41:12.882Z,6.25
2019-06-20T08:43:41.618Z,6.22
2019-06-20T08:46:10.555Z,14.05
2019-06-20T08:48:39.272Z,23.57
2019-06-20T08:51:09.837Z,27.90
2019-06-20T08:53:38.445Z,23.77
2019-06-20T08:56:07.878Z,9.90
2019-06-20T08:58:39.925Z,8.30
2019-06-20T09:03:37.078Z,5.90
2019-06-20T09:06:05.558Z,5.00
2019-06-20T09:08:34.245Z,5.00
2019-06-20T09:11:04.020Z,5.70
2019-06-20T09:13:36.979Z,5.35
2019-06-20T09:16:06.705Z,4.75
2019-06-20T09:18:36.920Z,5.08
2019-06-20T09:21:07.086Z,5.40
2019-06-20T09:23:35.830Z,5.28
2019-06-20T09:26:04.318Z,5.75
2019-06-20T09:28:32.638Z,5.70
2019-06-20T09:31:01.501Z,6.95
2019-06-20T09:33:30.083Z,6.78
2019-06-20T09:35:59.552Z,6.72
2019-06-20T09:38:30.544Z,6.35
2019-06-20T09:41:00.561Z,6.45
2019-06-20T09:43:29.336Z,8.10
2019-06-20T09:45:58.363Z,9.13
2019-06-20T09:48:26.897Z,7.08
2019-06-20T09:50:56.915Z,7.20
2019-06-20T09:53:25.654Z,6.92
2019-06-20T09:55:53.997Z,6.62
2019-06-20T09:58:22.519Z,5.83
2019-06-20T10:00:51.044Z,6.30
2019-06-20T10:03:20.576Z,5.50
2019-06-20T10:05:50.408Z,4.95
2019-06-20T10:08:19.660Z,5.17
2019-06-20T10:10:49.299Z,5.40
2019-06-20T10:13:18.696Z,5.10
2019-06-20T10:15:49.397Z,5.55
2019-06-20T10:18:18.314Z,6.17
2019-06-20T10:20:47.264Z,5.40
2019-06-20T10:23:16.088Z,5.20
2019-06-20T10:25:46.038Z,4.42
2019-06-20T10:28:14.683Z,4.55
2019-06-20T10:30:44.687Z,4.75
2019-06-20T10:33:13.889Z,4.62
2019-06-20T10:35:42.466Z,4.67
2019-06-20T10:38:11.229Z,4.97
2019-06-20T10:40:39.529Z,4.92
2019-06-20T10:43:07.928Z,5.00
2019-06-20T10:45:36.485Z,4.78
2019-06-20T10:48:05.165Z,4.90
2019-06-20T10:50:33.444Z,5.12
2019-06-20T10:53:02.155Z,5.37
2019-06-20T10:55:30.927Z,4.83
2019-06-20T10:57:59.659Z,5.12
2019-06-20T11:00:31.802Z,4.67
2019-06-20T11:03:00.342Z,4.60
2019-06-20T11:05:28.769Z,4.80
2019-06-20T11:07:57.698Z,4.95
2019-06-20T11:10:25.891Z,5.85
2019-06-20T11:12:56.331Z,5.97
2019-06-20T11:15:25.013Z,5.33
2019-06-20T11:17:56.562Z,5.25
2019-06-20T11:20:25.507Z,5.67
2019-06-20T11:22:54.258Z,6.00
2019-06-20T11:25:22.635Z,5.17
2019-06-20T11:27:51.030Z,5.60
2019-06-20T11:30:21.098Z,7.30
2019-06-20T11:32:49.756Z,5.90
2019-06-20T11:35:18.237Z,5.05
2019-06-20T11:37:47.340Z,5.17
2019-06-20T11:40:16.590Z,4.90
2019-06-20T11:42:44.794Z,5.15
2019-06-20T11:45:13.551Z,5.33
2019-06-20T11:47:42.546Z,4.67
2019-06-20T11:50:11.311Z,5.00
2019-06-20T11:52:42.420Z,4.58
2019-06-20T11:55:09.933Z,5.10
2019-06-20T11:57:38.284Z,4.58
2019-06-20T12:00:06.676Z,4.80
2019-06-20T12:02:34.934Z,4.17
2019-06-20T12:05:05.040Z,4.60
2019-06-20T12:07:33.736Z,4.35
2019-06-20T12:10:02.424Z,4.83
2019-06-20T12:12:31.036Z,4.67
2019-06-20T12:14:59.380Z,9.05
2019-06-20T12:17:28.305Z,7.30
2019-06-20T12:19:57.476Z,9.33
2019-06-20T12:22:26.075Z,11.12
2019-06-20T12:24:56.517Z,5.83
2019-06-20T12:27:25.076Z,5.28
2019-06-20T12:29:55.836Z,4.78
2019-06-20T12:32:33.205Z,4.33
2019-06-20T12:35:07.801Z,4.70
2019-06-20T12:37:36.407Z,4.78
2019-06-20T12:40:07.761Z,5.12
2019-06-20T12:42:39.825Z,5.03
2019-06-20T12:45:11.990Z,5.33
2019-06-20T12:47:41.813Z,4.70
2019-06-20T12:50:10.697Z,4.58
2019-06-20T12:52:41.243Z,4.60
2019-06-20T12:55:10.668Z,4.53
2019-06-20T12:57:40.245Z,4.50
2019-06-20T13:00:09.708Z,4.22
2019-06-20T13:02:38.684Z,4.28
2019-06-20T13:05:08.647Z,4.35
2019-06-20T13:07:38.638Z,4.60
2019-06-20T13:10:07.773Z,4.40
2019-06-20T13:12:36.349Z,4.92
2019-06-20T13:15:07.466Z,4.95
2019-06-20T13:17:35.732Z,5.10
2019-06-20T13:20:05.750Z,5.10
2019-06-20T13:22:34.460Z,5.47
2019-06-20T13:25:02.907Z,4.95
2019-06-20T13:27:31.141Z,5.08
2019-06-20T13:29:59.505Z,5.10
2019-06-20T13:32:27.754Z,6.33
2019-06-20T13:34:56.152Z,5.72
2019-06-20T13:37:24.564Z,5.50
2019-06-20T13:39:52.786Z,5.67
2019-06-20T13:42:21.144Z,5.50
2019-06-20T13:44:50.059Z,5.00
2019-06-20T13:47:18.322Z,5.25
2019-06-20T13:49:47.684Z,4.62
2019-06-20T13:52:16.300Z,4.83
2019-06-20T13:54:46.298Z,4.70
2019-06-20T13:57:15.112Z,5.28
2019-06-20T13:59:43.461Z,4.45
2019-06-20T14:02:11.906Z,5.37
2019-06-20T14:04:42.510Z,5.08
2019-06-20T14:07:10.344Z,6.78
2019-06-20T14:09:38.953Z,4.80
2019-06-20T14:12:07.327Z,5.00
2019-06-20T14:14:35.659Z,5.03
2019-06-20T14:17:04.209Z,5.00
2019-06-20T14:19:32.733Z,7.72
2019-06-20T14:22:01.557Z,11.75
2019-06-20T14:24:30.696Z,7.20
2019-06-20T14:26:59.545Z,6.05
2019-06-20T14:29:28.104Z,4.95
2019-06-20T14:31:56.709Z,15.23
2019-06-20T14:34:24.993Z,7.40
2019-06-20T14:36:54.004Z,20.15
2019-06-20T14:39:22.671Z,20.43
2019-06-20T14:41:51.519Z,10.20
2019-06-20T14:44:21.150Z,9.95
2019-06-20T14:46:50.255Z,4.35
2019-06-20T14:49:19.123Z,5.85
2019-06-20T14:51:48.492Z,27.37
2019-06-20T14:54:19.592Z,8.13
2019-06-20T14:56:47.936Z,20.50
2019-06-20T14:59:16.363Z,25.88
2019-06-20T15:01:46.041Z,5.67
2019-06-20T15:04:14.941Z,4.60
2019-06-20T15:06:44.895Z,4.90
2019-06-20T15:09:13.712Z,7.10
2019-06-20T15:11:47.808Z,5.50
2019-06-20T15:14:15.359Z,6.22
2019-06-20T15:16:46.168Z,5.97
2019-06-20T15:19:14.278Z,5.35
2019-06-20T15:21:42.783Z,5.92
2019-06-20T15:24:11.546Z,5.33
2019-06-20T15:26:41.134Z,6.08
2019-06-20T15:29:09.782Z,5.85
2019-06-20T15:31:38.012Z,5.30
2019-06-20T15:34:06.830Z,5.83
2019-06-20T15:36:35.408Z,5.80
2019-06-20T15:39:05.618Z,5.87
2019-06-20T15:41:34.012Z,5.40
2019-06-20T15:44:03.053Z,6.03
2019-06-20T15:46:31.281Z,5.83
2019-06-20T15:49:00.295Z,5.53
2019-06-20T15:51:30.113Z,6.08
2019-06-20T15:53:59.085Z,5.50
2019-06-20T15:56:28.232Z,5.50
2019-06-20T15:58:56.805Z,5.80
2019-06-20T16:01:25.103Z,5.75
2019-06-20T16:03:53.665Z,5.65
2019-06-20T16:06:22.291Z,7.10
2019-06-20T16:08:52.011Z,6.35
2019-06-20T16:11:20.489Z,8.10
2019-06-20T16:13:50.280Z,9.15
2019-06-20T16:16:19.088Z,9.93
2019-06-20T16:18:47.459Z,10.00
2019-06-20T16:21:16.051Z,9.73
2019-06-20T16:23:44.663Z,9.53
2019-06-20T16:26:12.936Z,9.15
2019-06-20T16:28:46.480Z,8.50
2019-06-20T16:31:26.221Z,7.20
2019-06-20T16:33:44.814Z,7.08
2019-06-20T16:36:13.325Z,6.70
2019-06-20T16:38:41.615Z,8.33
2019-06-20T16:41:10.453Z,7.28
2019-06-20T16:43:39.135Z,9.60
2019-06-20T16:46:07.609Z,7.17
2019-06-20T16:48:35.973Z,7.60
2019-06-20T16:51:04.711Z,7.83
2019-06-20T16:53:33.453Z,8.28
2019-06-20T16:56:02.251Z,8.75
2019-06-20T16:58:30.827Z,7.78
2019-06-20T17:00:59.367Z,8.13
2019-06-20T17:03:41.376Z,7.17
2019-06-20T17:05:59.149Z,6.83
2019-06-20T17:08:27.500Z,7.30
2019-06-20T17:10:55.757Z,7.92
2019-06-20T17:13:24.354Z,8.20
2019-06-20T17:15:52.654Z,8.28
2019-06-20T17:18:21.008Z,10.48
2019-06-20T17:20:49.407Z,9.28
2019-06-20T17:23:17.712Z,7.58
2019-06-20T17:25:46.178Z,7.70
2019-06-20T17:28:14.614Z,8.00
2019-06-20T17:30:43.916Z,8.55
2019-06-20T17:33:14.716Z,7.67
2019-06-20T17:35:43.769Z,8.18
2019-06-20T17:38:12.329Z,8.13
2019-06-20T17:40:41.131Z,7.83
2019-06-20T17:43:09.818Z,12.82
2019-06-20T17:45:39.020Z,10.93
2019-06-20T17:48:08.735Z,8.75
2019-06-20T17:50:37.732Z,10.10
2019-06-20T17:53:06.621Z,9.75
2019-06-20T17:55:36.009Z,10.30
2019-06-20T17:58:05.329Z,19.05
2019-06-20T18:00:34.552Z,14.03
2019-06-20T18:03:04.474Z,11.45
2019-06-20T18:05:33.110Z,9.33
2019-06-20T18:08:14.969Z,7.60
2019-06-20T18:10:37.615Z,10.08
2019-06-20T18:13:06.009Z,29.80
2019-06-20T18:15:34.590Z,19.62
2019-06-20T18:18:03.373Z,11.97
2019-06-20T18:20:32.052Z,9.45
2019-06-20T18:23:01.076Z,9.65
2019-06-20T18:25:31.772Z,21.65
2019-06-20T18:27:59.735Z,22.30
2019-06-20T18:30:41.028Z,19.05
2019-06-20T18:33:10.372Z,10.50
2019-06-20T18:35:38.737Z,11.75
2019-06-20T18:38:07.305Z,11.68
2019-06-20T18:40:37.650Z,12.15
2019-06-20T18:43:06.638Z,10.03
2019-06-20T18:45:35.036Z,12.20
2019-06-20T18:48:04.138Z,16.85
2019-06-20T18:50:33.411Z,11.15
2019-06-20T18:53:01.812Z,10.75
2019-06-20T18:55:30.649Z,10.88
2019-06-20T18:57:59.488Z,10.10
2019-06-20T19:00:34.705Z,10.58
2019-06-20T19:02:59.484Z,11.63
2019-06-20T19:05:28.372Z,13.38
2019-06-20T19:07:57.060Z,17.12
2019-06-20T19:10:25.803Z,18.55
2019-06-20T19:12:55.047Z,13.95
2019-06-20T19:15:23.506Z,13.58
2019-06-20T19:17:53.349Z,13.30
2019-06-20T19:20:21.716Z,13.85
2019-06-20T19:22:49.913Z,15.93
2019-06-20T19:25:18.461Z,18.07
2019-06-20T19:27:47.187Z,17.25
2019-06-20T19:30:16.516Z,16.77
2019-06-20T19:32:45.620Z,15.13
2019-06-20T19:35:15.213Z,15.53
2019-06-20T19:37:45.466Z,14.83
2019-06-20T19:40:15.799Z,13.62
2019-06-20T19:42:45.106Z,14.13
2019-06-20T19:45:14.889Z,14.70
2019-06-20T19:47:44.010Z,16.20
2019-06-20T19:50:12.451Z,13.93
2019-06-20T19:52:41.475Z,15.05
2019-06-20T19:55:14.522Z,13.98
2019-06-20T19:57:45.077Z,15.68
2019-06-20T20:00:15.347Z,15.88
2019-06-20T20:02:45.556Z,15.38
2019-06-20T20:05:19.617Z,16.15
2019-06-20T20:07:46.838Z,14.38
2019-06-20T20:10:18.289Z,13.60
2019-06-20T20:12:48.086Z,14.80
2019-06-20T20:15:17.166Z,11.93
2019-06-20T20:17:45.599Z,13.55
2019-06-20T20:20:15.062Z,13.60
2019-06-20T20:22:47.034Z,13.32
2019-06-20T20:25:15.318Z,12.98
2019-06-20T20:27:46.381Z,12.93
2019-06-20T20:30:14.600Z,12.60
2019-06-20T20:32:43.066Z,11.90
2019-06-20T20:35:11.415Z,11.83
2019-06-20T20:37:41.048Z,12.05
2019-06-20T20:40:10.894Z,11.80
2019-06-20T20:42:39.108Z,12.53
2019-06-20T20:45:09.148Z,12.28
2019-06-20T20:47:39.691Z,11.85
2019-06-20T20:50:08.391Z,12.13
2019-06-20T20:52:36.968Z,11.70
2019-06-20T20:55:06.116Z,11.55
2019-06-20T20:57:34.382Z,10.87
2019-06-20T21:00:03.879Z,11.48
2019-06-20T21:02:32.406Z,10.95
2019-06-20T21:05:00.887Z,12.35
2019-06-20T21:07:29.119Z,11.75
2019-06-20T21:09:57.851Z,11.35
2019-06-20T21:12:26.529Z,11.83
2019-06-20T21:14:55.772Z,11.33
2019-06-20T21:17:24.683Z,11.22
2019-06-20T21:19:52.987Z,11.30
2019-06-20T21:22:21.242Z,11.57
2019-06-20T21:24:49.955Z,11.10
2019-06-20T21:27:18.612Z,11.65
2019-06-20T21:29:47.267Z,10.87
2019-06-20T21:32:15.658Z,11.10
2019-06-20T21:34:43.943Z,10.70
2019-06-20T21:37:12.215Z,10.68
2019-06-20T21:39:41.679Z,11.77
2019-06-20T21:42:10.296Z,11.08
2019-06-20T21:44:39.004Z,9.95
2019-06-20T21:47:07.859Z,10.80
2019-06-20T21:49:37.154Z,10.88
2019-06-20T21:52:05.793Z,11.25
2019-06-20T21:54:34.169Z,10.78
2019-06-20T21:57:03.140Z,10.45
2019-06-20T21:59:31.543Z,10.88
2019-06-20T22:02:00.052Z,9.57
2019-06-20T22:04:28.980Z,10.65
2019-06-20T22:06:57.796Z,10.33
2019-06-20T22:09:26.572Z,10.57
2019-06-20T22:11:54.813Z,11.07
2019-06-20T22:14:23.232Z,10.83
2019-06-20T22:16:52.175Z,11.10
2019-06-20T22:19:20.570Z,10.77
2019-06-20T22:21:49.377Z,11.45
2019-06-20T22:24:17.894Z,11.73
2019-06-20T22:26:46.145Z,11.25
2019-06-20T22:29:14.688Z,12.20
2019-06-20T22:31:43.131Z,12.70
2019-06-20T22:34:12.130Z,11.97
2019-06-20T22:36:40.882Z,12.23
2019-06-20T22:39:10.793Z,12.47
2019-06-20T22:41:40.229Z,11.93
2019-06-20T22:44:08.647Z,12.25
2019-06-20T22:46:37.299Z,12.93
2019-06-20T22:49:06.202Z,11.90
2019-06-20T22:51:34.601Z,12.50
2019-06-20T22:54:03.246Z,12.85
2019-06-20T22:56:31.899Z,11.60
2019-06-20T22:59:00.696Z,11.57
2019-06-20T23:01:29.513Z,11.95
2019-06-20T23:03:57.917Z,10.43
2019-06-20T23:06:26.590Z,10.48
2019-06-20T23:08:54.839Z,10.30
2019-06-20T23:11:23.396Z,10.68
2019-06-20T23:13:51.867Z,11.50
2019-06-20T23:16:20.353Z,10.93
2019-06-20T23:18:48.965Z,10.13
2019-06-20T23:21:17.485Z,10.20
2019-06-20T23:23:46.353Z,10.95
2019-06-20T23:26:15.249Z,11.03
2019-06-20T23:28:43.532Z,12.17
2019-06-20T23:31:11.919Z,12.40
2019-06-20T23:33:40.293Z,12.47
2019-06-20T23:36:08.917Z,11.55
2019-06-20T23:38:37.135Z,10.72
2019-06-20T23:41:05.757Z,9.63
2019-06-20T23:43:35.284Z,10.20
2019-06-20T23:46:03.658Z,10.10
2019-06-20T23:48:31.983Z,9.70
2019-06-20T23:51:00.551Z,9.97
2019-06-20T23:53:28.986Z,9.40
2019-06-20T23:55:57.688Z,10.80
2019-06-20T23:58:26.990Z,10.73
